Список аэропортов
Фактическая погода:

22 января, 23:20
Температура: -13°C (-15.2*)
Ветер: перем. 1 м/с
Давление: *767 мм
неб. 90 м
дымка
Время (МСК)Темп. СВетерВлажностьДавлениеОблачностьОсадки
21:00-10С, 1 м/с86%1029 гПаясно
22:00-10С, 2 м/с88%1029 гПаясно
23:00-11С, 1 м/с90%1029 гПаясно
23 января
00:00-12С, 1 м/с91%1029 гПаясно
01:00-13СЗ, 1 м/с91%1029 гПамалооблачно
02:00-13З, 1 м/с92%1029 гПамалооблачно
03:00-13З, 1 м/с92%1029 гПамалооблачно
04:00-13ЮЗ, 1 м/с91%1029 гПамалооблачно
05:00-13ЮЗ, 2 м/с92%1029 гПамалооблачно
06:00-14ЮЗ, 1 м/с91%1029 гПас прояснениями
07:00-13ЮЗ, 2 м/с94%1029 гПаоблачно
08:00-13ЮЗ, 1 м/с92%1029 гПаоблачно
09:00-13ЮЗ, 1 м/с92%1028 гПаоблачно
10:00-13ЮЗ, 1 м/с90%1028 гПас прояснениями
11:00-13Ю, 1 м/с88%1028 гПамалооблачно
12:00-10ЮЗ, 1 м/с82%1028 гПаясно
13:00-8З, 1 м/с77%1027 гПаясно
14:00-7СЗ, 1 м/с73%1026 гПаясно
15:00-5СЗ, 1 м/с70%1025 гПаясно
16:00-4С, 1 м/с68%1025 гПаясно
17:00-4СЗ, 1 м/с67%1025 гПаясно
18:00-4СЗ, 1 м/с67%1025 гПаясно
19:00-6СЗ, 2 м/с77%1026 гПаясно
20:00-8СЗ, 2 м/с81%1027 гПаясно
21:00-9СЗ, 1 м/с84%1027 гПаясно
22:00-10З, 1 м/с87%1027 гПаясно
23:00-11З, 1 м/с89%1027 гПаясно
24 января
00:00-11ЮЗ, 1 м/с90%1027 гПаясно
01:00-12ЮЗ, 1 м/с91%1028 гПаясно
02:00-12З, 2 м/с91%1028 гПаясно
03:00-12З, 2 м/с91%1028 гПаясно
04:00-13З, 2 м/с91%1028 гПамалооблачно
05:00-13ЮЗ, 2 м/с90%1028 гПаоблачно
06:00-12ЮЗ, 2 м/с89%1028 гПаоблачно
07:00-12ЮЗ, 2 м/с88%1028 гПаоблачно
08:00-12ЮЗ, 2 м/с88%1028 гПаоблачно
09:00-11З, 2 м/с88%1028 гПаоблачно
10:00-11З, 2 м/с89%1028 гПаоблачно
11:00-10З, 1 м/с90%1028 гПаоблачно
12:00-9З, 2 м/с88%1028 гПаоблачно
13:00-8З, 2 м/с86%1028 гПаоблачно
14:00-7СЗ, 2 м/с84%1027 гПаоблачно
15:00-6СЗ, 1 м/с81%1027 гПаоблачно
16:00-6СЗ, 1 м/с79%1027 гПаоблачно
17:00-6С, 1 м/с78%1027 гПаоблачно
18:00-6СЗ, 1 м/с78%1027 гПаоблачно
19:00-6С, 1 м/с82%1028 гПаоблачно
20:00-7С, 2 м/с84%1029 гПаоблачно
21:00-7С, 2 м/с84%1029 гПаоблачно